Time;durP1;ratioP1;P1;durP2;ratioP2;P2;SDS_P1;SDS_P2;PMS_P1;PMS_P2;Temp;Humidity;BMP_temperature;BMP_pressure;BME280_temperature;BME280_humidity;BME280_pressure;Samples;Min_cycle;Max_cycle;Signal;HPM_P1;HPM_P2
2022/04/29 00:00:24;;;;;;;7.87;6.50;;;12.50;99.90;;;;;;5039380;28;20413;-81
2022/04/29 00:03:10;;;;;;;7.33;6.40;;;12.60;99.90;;;;;;5023685;28;20395;-82
2022/04/29 00:05:55;;;;;;;7.17;6.47;;;12.50;99.90;;;;;;5039230;28;20446;-82
2022/04/29 00:08:40;;;;;;;7.40;6.70;;;12.50;99.90;;;;;;5043234;28;20478;-81
2022/04/29 00:11:27;;;;;;;7.73;6.93;;;12.50;99.90;;;;;;5058350;28;20461;-81
2022/04/29 00:14:12;;;;;;;9.27;6.67;;;12.40;99.90;;;;;;5049992;28;20425;-81
2022/04/29 00:16:57;;;;;;;8.00;7.07;;;12.40;99.90;;;;;;5039467;28;20403;-82
2022/04/29 00:19:43;;;;;;;7.53;6.83;;;12.40;99.90;;;;;;5038411;28;20476;-82
2022/04/29 00:22:27;;;;;;;7.40;6.70;;;12.30;99.90;;;;;;5039235;28;20382;-81
2022/04/29 00:25:13;;;;;;;8.13;7.43;;;12.30;99.90;;;;;;5038733;28;20442;-81
2022/04/29 00:27:58;;;;;;;6.77;6.00;;;12.20;99.90;;;;;;5039373;28;20746;-82
2022/04/29 00:30:42;;;;;;;7.37;5.97;;;12.20;99.90;;;;;;5045012;28;20453;-81
2022/04/29 00:33:27;;;;;;;10.17;7.70;;;12.20;99.90;;;;;;5043846;28;20429;-81
2022/04/29 00:36:11;;;;;;;8.60;7.77;;;12.10;99.90;;;;;;5062362;28;20381;-81
2022/04/29 00:38:56;;;;;;;9.90;7.03;;;12.20;99.90;;;;;;5062291;28;20515;-82
2022/04/29 00:41:44;;;;;;;8.13;6.80;;;12.10;99.90;;;;;;5040640;28;20459;-82
2022/04/29 00:44:29;;;;;;;8.00;7.20;;;12.10;99.90;;;;;;5062568;28;20386;-82
2022/04/29 00:47:17;;;;;;;9.70;8.90;;;12.00;99.90;;;;;;5061519;28;20437;-81
2022/04/29 00:50:01;;;;;;;8.07;7.27;;;12.00;99.90;;;;;;5062198;28;20446;-81
2022/04/29 00:52:48;;;;;;;8.27;7.47;;;12.00;99.90;;;;;;5045727;28;20448;-81
2022/04/29 00:55:36;;;;;;;7.70;6.97;;;11.80;99.90;;;;;;5061609;28;20832;-81
2022/04/29 00:58:31;;;;;;;8.83;6.70;;;11.80;99.90;;;;;;5061274;28;20444;-81
2022/04/29 01:01:16;;;;;;;11.00;7.10;;;11.80;99.90;;;;;;5061616;28;20451;-81
2022/04/29 01:04:03;;;;;;;8.97;8.17;;;11.80;99.90;;;;;;5061009;28;20476;-83
2022/04/29 01:06:48;;;;;;;8.27;7.40;;;11.90;99.90;;;;;;5059225;28;20496;-82
2022/04/29 01:09:32;;;;;;;8.87;7.70;;;11.80;99.90;;;;;;5061386;28;20410;-82
2022/04/29 01:12:17;;;;;;;8.07;6.90;;;11.80;99.90;;;;;;5060285;28;20573;-82
2022/04/29 01:15:06;;;;;;;8.50;7.60;;;11.70;99.90;;;;;;5060813;28;20777;-82
2022/04/29 01:17:54;;;;;;;12.33;7.00;;;11.70;99.90;;;;;;5060983;28;20393;-82
2022/04/29 01:20:39;;;;;;;13.50;7.13;;;11.60;99.90;;;;;;5061113;28;20382;-82
2022/04/29 01:23:24;;;;;;;8.10;7.30;;;11.60;99.90;;;;;;5061735;28;20475;-82
2022/04/29 01:26:10;;;;;;;6.73;6.13;;;11.60;99.90;;;;;;5045173;28;20528;-82
2022/04/29 01:28:57;;;;;;;8.90;7.40;;;11.60;99.90;;;;;;5060718;28;20474;-82
2022/04/29 01:31:43;;;;;;;9.00;7.73;;;11.60;99.90;;;;;;5044978;28;20807;-82
2022/04/29 01:34:27;;;;;;;7.87;7.17;;;11.60;99.90;;;;;;5061253;28;20454;-82
2022/04/29 01:37:12;;;;;;;7.30;6.60;;;11.60;99.90;;;;;;5046330;28;20975;-82
2022/04/29 01:39:57;;;;;;;7.43;6.70;;;11.50;99.90;;;;;;5060798;28;20428;-82
2022/04/29 01:42:42;;;;;;;8.53;7.43;;;11.60;99.90;;;;;;5045917;28;20496;-82
2022/04/29 01:45:27;;;;;;;9.17;8.30;;;11.50;99.90;;;;;;5025663;28;20943;-82
2022/04/29 01:48:11;;;;;;;7.27;6.67;;;11.40;99.90;;;;;;5043582;28;20882;-82
2022/04/29 01:50:56;;;;;;;8.70;7.83;;;11.30;99.90;;;;;;5045276;28;20433;-82
2022/04/29 01:53:40;;;;;;;8.60;7.70;;;11.20;99.90;;;;;;5060688;28;20432;-82
2022/04/29 01:56:39;;;;;;;11.23;7.77;;;11.30;99.90;;;;;;5060080;28;20806;-83
2022/04/29 01:59:23;;;;;;;13.13;7.93;;;11.30;99.90;;;;;;5060846;28;20390;-82
2022/04/29 02:02:08;;;;;;;9.60;8.40;;;11.30;99.90;;;;;;5036427;28;20438;-82
2022/04/29 02:04:52;;;;;;;8.97;7.57;;;11.30;99.90;;;;;;5019471;28;20991;-82
2022/04/29 02:07:37;;;;;;;11.33;7.83;;;11.30;99.90;;;;;;5034290;28;20473;-79
2022/04/29 02:10:22;;;;;;;8.93;7.93;;;11.30;99.90;;;;;;5056931;28;20477;-80
2022/04/29 02:13:08;;;;;;;11.23;8.63;;;11.30;99.90;;;;;;5057084;28;20392;-78
2022/04/29 02:15:53;;;;;;;9.40;8.37;;;11.30;99.90;;;;;;5057542;28;20491;-78
2022/04/29 02:18:38;;;;;;;11.90;8.57;;;11.30;99.90;;;;;;5056433;28;20382;-78
2022/04/29 02:21:24;;;;;;;12.30;7.70;;;11.20;99.90;;;;;;5055913;28;20448;-78
2022/04/29 02:24:09;;;;;;;7.93;6.90;;;11.20;99.90;;;;;;5056161;28;20434;-78
2022/04/29 02:26:54;;;;;;;9.30;8.30;;;11.10;99.90;;;;;;5056238;28;20465;-78
2022/04/29 02:29:39;;;;;;;9.67;8.10;;;11.10;99.90;;;;;;5057372;28;20414;-78
2022/04/29 02:32:24;;;;;;;16.27;10.25;;;11.10;99.90;;;;;;5056330;28;20496;-78
2022/04/29 02:35:10;;;;;;;10.73;9.77;;;11.10;99.90;;;;;;5051666;28;20212;-80
2022/04/29 02:37:55;;;;;;;9.20;7.63;;;11.00;99.90;;;;;;5038816;28;20774;-80
2022/04/29 02:40:39;;;;;;;9.93;8.17;;;10.90;99.90;;;;;;5027295;28;20805;-81
2022/04/29 02:43:24;;;;;;;10.27;8.13;;;10.90;99.90;;;;;;5021411;28;20380;-81
2022/04/29 02:46:09;;;;;;;8.67;7.77;;;10.90;99.90;;;;;;5036998;28;20458;-83
2022/04/29 02:48:53;;;;;;;8.57;7.70;;;10.90;99.90;;;;;;5041462;28;20443;-82
2022/04/29 02:51:38;;;;;;;11.40;7.73;;;10.90;99.90;;;;;;5045563;28;20434;-82
2022/04/29 02:54:23;;;;;;;10.20;7.70;;;10.90;99.90;;;;;;5040145;28;20398;-81
2022/04/29 02:57:07;;;;;;;15.80;8.50;;;10.80;99.90;;;;;;5039107;28;20383;-79
2022/04/29 02:59:52;;;;;;;10.40;8.30;;;10.80;99.90;;;;;;5038621;28;20529;-81
2022/04/29 03:02:36;;;;;;;8.03;7.23;;;10.80;99.90;;;;;;5039295;28;20379;-81
2022/04/29 03:05:21;;;;;;;9.90;7.93;;;10.70;99.90;;;;;;5038244;28;20485;-81
2022/04/29 03:08:07;;;;;;;15.07;8.00;;;10.70;99.90;;;;;;5039816;28;20703;-81
2022/04/29 03:10:52;;;;;;;12.70;8.40;;;10.70;99.90;;;;;;5037451;28;20914;-82
2022/04/29 03:13:37;;;;;;;9.93;8.93;;;10.70;99.90;;;;;;5038370;28;20427;-81
2022/04/29 03:16:21;;;;;;;9.10;8.20;;;10.60;99.90;;;;;;5038866;28;20429;-81
2022/04/29 03:19:08;;;;;;;9.27;8.37;;;10.60;99.90;;;;;;5038799;28;20430;-80
2022/04/29 03:21:53;;;;;;;9.57;8.57;;;10.60;99.90;;;;;;5038872;28;20426;-81
2022/04/29 03:24:37;;;;;;;9.63;7.67;;;10.60;99.90;;;;;;5039355;28;20378;-82
2022/04/29 03:27:21;;;;;;;11.87;8.07;;;10.50;99.90;;;;;;5038517;28;20983;-82
2022/04/29 03:30:07;;;;;;;11.37;8.30;;;10.50;99.90;;;;;;5022185;28;20434;-83
2022/04/29 03:32:55;;;;;;;12.70;9.37;;;10.50;99.90;;;;;;5026471;28;20470;-82
2022/04/29 03:35:45;;;;;;;9.10;7.80;;;10.50;99.90;;;;;;5039435;28;20391;-82
2022/04/29 03:38:29;;;;;;;13.07;8.90;;;10.50;99.90;;;;;;5039551;28;20383;-82
2022/04/29 03:41:15;;;;;;;9.43;8.53;;;10.50;99.90;;;;;;5038999;28;20430;-82
2022/04/29 03:44:00;;;;;;;10.93;8.80;;;10.40;99.90;;;;;;5039279;28;20900;-82
2022/04/29 03:46:44;;;;;;;10.33;8.00;;;10.30;99.90;;;;;;5037743;28;20466;-82
2022/04/29 03:49:36;;;;;;;11.90;8.10;;;10.30;99.90;;;;;;5034208;28;20438;-82
2022/04/29 03:52:20;;;;;;;12.73;7.83;;;10.30;99.90;;;;;;5037780;28;20470;-82
2022/04/29 03:55:06;;;;;;;9.67;8.07;;;10.30;99.90;;;;;;5037676;28;20426;-83
2022/04/29 03:57:51;;;;;;;9.43;8.13;;;10.20;99.90;;;;;;5039302;28;20421;-83
2022/04/29 04:00:36;;;;;;;9.17;8.20;;;10.20;99.90;;;;;;5040828;28;20451;-82
2022/04/29 04:03:21;;;;;;;9.73;8.70;;;10.20;99.90;;;;;;5039468;28;20378;-81
2022/04/29 04:09:05;;;;;;;12.53;9.33;;;10.30;99.90;;;;;;5021580;28;20388;-81
2022/04/29 04:11:50;;;;;;;9.53;8.53;;;10.10;99.90;;;;;;5035170;28;20537;-78
2022/04/29 04:14:35;;;;;;;13.53;9.40;;;10.20;99.90;;;;;;5044441;28;20388;-82
2022/04/29 04:17:19;;;;;;;11.73;9.10;;;10.20;99.90;;;;;;5028586;28;20396;-81
2022/04/29 04:20:06;;;;;;;17.07;9.67;;;10.20;99.90;;;;;;5030035;28;21007;-82
2022/04/29 04:22:51;;;;;;;9.07;8.20;;;10.20;99.90;;;;;;5032454;28;20444;-81
2022/04/29 04:25:35;;;;;;;12.37;9.40;;;10.20;99.90;;;;;;5033351;28;20886;-80
2022/04/29 04:28:20;;;;;;;10.67;9.20;;;10.20;99.90;;;;;;5034801;28;20392;-81
2022/04/29 04:31:05;;;;;;;10.37;9.33;;;10.20;99.90;;;;;;5017698;28;20432;-82
2022/04/29 04:33:50;;;;;;;11.50;9.90;;;10.10;99.90;;;;;;5011913;28;20412;-82
2022/04/29 04:36:34;;;;;;;11.80;8.30;;;10.10;99.90;;;;;;5009187;28;20436;-82
2022/04/29 04:39:20;;;;;;;15.30;9.73;;;10.10;99.90;;;;;;5009592;28;20940;-82
2022/04/29 04:42:05;;;;;;;11.67;9.70;;;10.10;99.90;;;;;;5039398;28;20386;-82
2022/04/29 04:44:51;;;;;;;10.07;8.93;;;10.10;99.90;;;;;;5041111;28;20411;-81
2022/04/29 04:47:36;;;;;;;9.10;8.10;;;10.10;99.90;;;;;;5040578;28;20427;-81
2022/04/29 04:50:20;;;;;;;11.23;9.07;;;10.10;99.90;;;;;;5035417;28;20450;-82
2022/04/29 04:53:05;;;;;;;11.10;9.27;;;10.10;99.90;;;;;;5035482;28;20387;-82
2022/04/29 04:55:49;;;;;;;10.63;9.60;;;10.10;99.90;;;;;;5032259;28;20423;-82
2022/04/29 04:58:34;;;;;;;16.40;10.40;;;10.20;99.90;;;;;;5032382;28;20412;-81
2022/04/29 05:01:19;;;;;;;11.70;10.47;;;10.20;99.90;;;;;;5030536;28;20415;-82
2022/04/29 05:04:04;;;;;;;10.90;9.60;;;10.30;99.90;;;;;;5031952;28;20473;-81
2022/04/29 05:06:49;;;;;;;11.53;9.67;;;10.40;99.90;;;;;;5065309;28;20456;-81
2022/04/29 05:09:33;;;;;;;11.90;10.70;;;10.50;99.90;;;;;;5066975;28;20556;-82
2022/04/29 05:12:18;;;;;;;12.17;9.37;;;10.50;99.90;;;;;;5066136;28;20479;-82
2022/04/29 05:15:03;;;;;;;10.80;9.67;;;10.60;99.90;;;;;;5052864;28;20425;-82
2022/04/29 05:17:49;;;;;;;10.57;9.47;;;10.60;99.90;;;;;;5061092;28;20430;-82
2022/04/29 05:20:33;;;;;;;14.73;11.77;;;10.50;99.90;;;;;;5053969;28;20391;-82
2022/04/29 05:23:18;;;;;;;12.40;9.90;;;10.70;99.90;;;;;;5064151;28;20421;-79
2022/04/29 05:26:04;;;;;;;17.93;11.47;;;10.60;99.90;;;;;;5068380;28;20417;-82
2022/04/29 05:28:49;;;;;;;11.07;9.93;;;10.60;99.90;;;;;;5065628;28;20412;-82
2022/04/29 05:31:34;;;;;;;10.43;9.40;;;10.50;99.90;;;;;;5046195;28;20443;-81
2022/04/29 05:34:19;;;;;;;16.67;10.73;;;10.60;99.90;;;;;;5050427;28;20468;-82
2022/04/29 05:37:04;;;;;;;12.97;9.90;;;10.70;99.90;;;;;;5067679;28;20397;-81
2022/04/29 05:42:52;;;;;;;12.73;10.80;;;10.80;99.90;;;;;;5071577;28;20381;-78
2022/04/29 05:45:37;;;;;;;10.47;9.43;;;10.80;99.90;;;;;;5047714;28;20460;-79
2022/04/29 05:48:22;;;;;;;11.37;10.17;;;10.90;99.90;;;;;;5076204;28;20421;-78
2022/04/29 05:51:07;;;;;;;18.87;10.87;;;10.80;99.90;;;;;;5070732;28;20514;-80
2022/04/29 05:53:52;;;;;;;15.07;10.53;;;10.90;99.90;;;;;;5071022;28;20452;-81
2022/04/29 05:56:37;;;;;;;11.17;10.00;;;10.90;99.90;;;;;;5061678;28;20457;-81
2022/04/29 05:59:21;;;;;;;10.27;9.30;;;10.90;99.90;;;;;;5019458;28;20413;-82
2022/04/29 06:02:07;;;;;;;15.43;11.90;;;10.80;99.90;;;;;;5056874;28;20442;-81
2022/04/29 06:04:51;;;;;;;11.70;10.25;;;10.80;99.90;;;;;;5019488;28;1168279;-81
2022/04/29 06:07:37;;;;;;;14.03;11.40;;;10.90;99.90;;;;;;5074410;28;20248;-80
2022/04/29 06:10:21;;;;;;;14.13;10.80;;;11.10;99.90;;;;;;5052006;28;20616;-82
2022/04/29 06:13:08;;;;;;;16.63;11.47;;;11.40;99.90;;;;;;5062070;28;20409;-81
2022/04/29 06:15:52;;;;;;;14.13;10.77;;;11.50;99.90;;;;;;5044877;28;20483;-81
2022/04/29 06:18:37;;;;;;;14.07;11.23;;;11.50;99.90;;;;;;5066145;28;20522;-81
2022/04/29 06:21:22;;;;;;;13.23;10.10;;;11.50;99.90;;;;;;5049038;28;20501;-81
2022/04/29 06:24:07;;;;;;;14.50;11.50;;;11.50;99.90;;;;;;5066469;28;20409;-81
2022/04/29 06:26:52;;;;;;;13.23;10.73;;;11.60;99.90;;;;;;5065729;28;20421;-81
2022/04/29 06:29:37;;;;;;;13.63;10.70;;;11.60;99.90;;;;;;5055965;28;20433;-81
2022/04/29 06:32:22;;;;;;;12.23;9.77;;;11.70;99.90;;;;;;5068949;28;20461;-81
2022/04/29 06:35:07;;;;;;;16.10;10.53;;;11.80;99.90;;;;;;5055071;28;20423;-81
2022/04/29 06:37:52;;;;;;;12.70;11.50;;;11.80;99.90;;;;;;5064603;28;20422;-81
2022/04/29 06:40:37;;;;;;;16.87;12.37;;;11.80;99.90;;;;;;5064618;28;20548;-81
2022/04/29 06:43:23;;;;;;;15.13;11.80;;;11.60;99.90;;;;;;5044208;28;20437;-81
2022/04/29 06:46:10;;;;;;;14.43;11.87;;;11.50;99.90;;;;;;5056621;28;20441;-81
2022/04/29 06:48:55;;;;;;;12.80;10.67;;;11.60;99.90;;;;;;5061094;28;20425;-80
2022/04/29 06:51:42;;;;;;;17.70;11.50;;;11.60;99.90;;;;;;5060965;28;20449;-80
2022/04/29 06:54:27;;;;;;;15.03;11.40;;;11.70;99.90;;;;;;5050536;28;20441;-82
2022/04/29 06:57:12;;;;;;;14.30;10.93;;;11.80;99.90;;;;;;5027162;28;20572;-81
2022/04/29 06:59:57;;;;;;;13.53;12.10;;;12.00;99.90;;;;;;5047393;28;20455;-81
2022/04/29 07:02:44;;;;;;;12.30;10.80;;;12.20;99.90;;;;;;5057700;28;20442;-82
2022/04/29 07:05:31;;;;;;;13.60;11.97;;;12.40;99.90;;;;;;5053833;28;20481;-82
2022/04/29 07:08:15;;;;;;;12.70;11.10;;;12.50;99.90;;;;;;5058359;28;20472;-82
2022/04/29 07:11:02;;;;;;;14.17;11.87;;;12.40;99.90;;;;;;5055830;28;20992;-81
2022/04/29 07:13:46;;;;;;;11.93;10.90;;;12.60;99.90;;;;;;5052956;28;20409;-80
2022/04/29 07:16:31;;;;;;;11.80;10.70;;;12.70;99.90;;;;;;5039304;28;20490;-80
2022/04/29 07:19:15;;;;;;;11.60;10.50;;;12.70;99.90;;;;;;5050261;28;20499;-81
2022/04/29 07:22:00;;;;;;;19.83;11.07;;;12.60;99.90;;;;;;5048992;28;20447;-81
2022/04/29 07:24:45;;;;;;;12.53;11.33;;;12.80;99.90;;;;;;5039382;28;20475;-81
2022/04/29 07:27:30;;;;;;;17.10;11.13;;;12.90;99.90;;;;;;5047457;28;20465;-81
2022/04/29 07:30:14;;;;;;;11.03;9.93;;;13.00;99.90;;;;;;5051797;28;20485;-80
2022/04/29 07:32:59;;;;;;;12.47;10.87;;;13.10;99.90;;;;;;5042230;28;20528;-80
2022/04/29 07:41:47;;;;;;;14.53;11.00;;;13.40;99.90;;;;;;5059742;28;20426;-80
2022/04/29 07:44:33;;;;;;;19.80;11.20;;;13.60;99.90;;;;;;5053108;28;20473;-82
2022/04/29 07:47:18;;;;;;;17.57;9.67;;;13.80;99.90;;;;;;5056102;28;20440;-80
2022/04/29 07:50:05;;;;;;;15.47;12.10;;;14.00;99.90;;;;;;5058046;28;20437;-81
2022/04/29 07:53:10;;;;;;;12.00;10.80;;;13.70;99.90;;;;;;5054565;28;20438;-81
2022/04/29 07:55:54;;;;;;;16.70;10.27;;;14.00;99.90;;;;;;5023812;28;20485;-80
2022/04/29 07:58:39;;;;;;;10.17;8.90;;;14.20;99.90;;;;;;5039387;28;20448;-81
2022/04/29 08:01:25;;;;;;;10.20;9.30;;;14.30;99.90;;;;;;5028891;28;20869;-80
2022/04/29 08:04:12;;;;;;;13.17;10.40;;;14.00;99.90;;;;;;5024764;28;20501;-80
2022/04/29 08:06:56;;;;;;;10.03;8.80;;;14.50;99.90;;;;;;5029338;28;20811;-81
2022/04/29 08:09:41;;;;;;;14.20;8.47;;;14.60;99.90;;;;;;5031028;28;20435;-81
2022/04/29 08:12:27;;;;;;;10.20;9.07;;;14.40;99.90;;;;;;5036446;28;20478;-80
2022/04/29 08:15:13;;;;;;;8.63;7.90;;;14.60;99.90;;;;;;5036588;28;20507;-80
2022/04/29 08:17:59;;;;;;;14.10;7.67;;;14.70;99.90;;;;;;5019127;28;20442;-81
2022/04/29 08:20:43;;;;;;;8.60;7.83;;;14.60;99.90;;;;;;5032563;28;20489;-81
2022/04/29 08:23:28;;;;;;;8.83;7.93;;;14.70;99.90;;;;;;5030464;28;20438;-80
2022/04/29 08:26:12;;;;;;;7.97;7.17;;;14.80;99.90;;;;;;5029486;28;20432;-81
2022/04/29 08:28:58;;;;;;;8.20;7.40;;;15.10;99.90;;;;;;5041709;28;20437;-80
2022/04/29 08:31:43;;;;;;;10.97;6.87;;;15.00;99.90;;;;;;5058488;28;20465;-79
2022/04/29 08:34:28;;;;;;;8.47;6.57;;;15.30;99.90;;;;;;5036230;28;20489;-80
2022/04/29 08:37:13;;;;;;;8.53;6.90;;;15.40;99.90;;;;;;5063178;28;20418;-80
2022/04/29 08:40:00;;;;;;;6.60;6.00;;;15.50;99.90;;;;;;5063443;28;20496;-79
2022/04/29 08:42:45;;;;;;;8.00;7.20;;;15.50;99.90;;;;;;5061142;28;20513;-81
2022/04/29 08:45:30;;;;;;;7.77;6.97;;;15.60;99.90;;;;;;5054274;28;21856;-81
2022/04/29 08:48:18;;;;;;;7.93;7.10;;;15.60;99.90;;;;;;5038035;28;20434;-79
2022/04/29 08:51:06;;;;;;;9.93;6.57;;;15.80;99.90;;;;;;5041910;28;20461;-80
2022/04/29 08:53:51;;;;;;;6.57;5.97;;;16.10;99.90;;;;;;5054932;28;21080;-80
2022/04/29 08:59:38;;;;;;;5.77;5.27;;;16.20;99.90;;;;;;5060752;28;20417;-80
2022/04/29 09:02:26;;;;;;;7.43;5.47;;;16.00;99.90;;;;;;5045576;28;20437;-81
2022/04/29 09:05:11;;;;;;;6.43;5.83;;;16.10;99.90;;;;;;5033699;28;20480;-81
2022/04/29 09:08:00;;;;;;;8.87;5.13;;;16.30;99.90;;;;;;5048961;28;20768;-81
2022/04/29 09:10:57;;;;;;;7.57;5.97;;;16.60;99.90;;;;;;5059092;28;20473;-81
2022/04/29 09:13:41;;;;;;;8.07;7.10;;;16.70;99.90;;;;;;5053139;28;20455;-80
2022/04/29 09:16:26;;;;;;;6.10;5.50;;;17.00;97.30;;;;;;5037932;28;20434;-81
2022/04/29 09:19:29;;;;;;;5.60;4.60;;;17.00;96.20;;;;;;5053715;28;20496;-81
2022/04/29 09:22:16;;;;;;;5.87;5.30;;;17.40;94.60;;;;;;4979752;28;21023;-80
2022/04/29 09:25:02;;;;;;;7.13;6.33;;;17.30;95.80;;;;;;4996087;28;20424;-81
2022/04/29 09:27:56;;;;;;;8.93;6.37;;;17.60;96.40;;;;;;4993398;28;20829;-81
2022/04/29 09:30:42;;;;;;;6.80;6.07;;;17.80;94.50;;;;;;4991965;28;20470;-81
2022/04/29 09:33:28;;;;;;;6.07;5.47;;;17.70;95.50;;;;;;4991931;28;20509;-80
2022/04/29 09:36:22;;;;;;;8.13;5.33;;;17.90;95.10;;;;;;4993070;28;20428;-81
2022/04/29 09:42:06;;;;;;;5.37;4.87;;;18.20;95.50;;;;;;4991655;28;20440;-81
2022/04/29 09:44:50;;;;;;;6.53;5.27;;;18.30;94.30;;;;;;4982192;28;20464;-81
2022/04/29 09:47:55;;;;;;;7.77;5.83;;;18.30;94.80;;;;;;4994834;28;20468;-80
2022/04/29 09:50:49;;;;;;;5.80;4.80;;;18.60;94.60;;;;;;4992221;28;20475;-79
2022/04/29 09:53:37;;;;;;;9.20;5.33;;;18.70;92.50;;;;;;5015525;28;20758;-80
2022/04/29 09:56:22;;;;;;;6.37;5.87;;;19.10;91.00;;;;;;5045273;28;21689;-80
2022/04/29 09:59:08;;;;;;;6.70;4.90;;;19.40;89.90;;;;;;5050342;28;20430;-79
2022/04/29 10:01:52;;;;;;;5.27;4.77;;;19.40;85.90;;;;;;5050806;28;20503;-81
2022/04/29 10:04:40;;;;;;;5.70;5.20;;;19.20;93.00;;;;;;5030102;28;20512;-81
2022/04/29 10:07:25;;;;;;;5.97;5.13;;;19.60;90.00;;;;;;5014508;28;20980;-81
2022/04/29 10:10:48;;;;;;;4.23;3.80;;;19.10;79.00;;;;;;5028608;28;20811;-80
2022/04/29 10:13:34;;;;;;;4.53;3.77;;;19.30;78.50;;;;;;4988288;28;20434;-79
2022/04/29 10:16:19;;;;;;;4.30;3.90;;;18.80;78.40;;;;;;5004791;28;20430;-80
2022/04/29 10:22:10;;;;;;;5.20;4.70;;;18.50;79.60;;;;;;5031536;28;20446;-79
2022/04/29 10:24:55;;;;;;;5.00;4.50;;;18.50;77.80;;;;;;5017310;28;20414;-81
2022/04/29 10:27:41;;;;;;;5.13;4.73;;;18.40;78.10;;;;;;5031014;28;20470;-80
2022/04/29 10:30:29;;;;;;;4.73;4.03;;;18.40;79.00;;;;;;5032193;28;20450;-82
2022/04/29 10:33:22;;;;;;;4.17;3.87;;;19.00;78.80;;;;;;5018263;28;20459;-80
2022/04/29 10:36:08;;;;;;;7.03;4.70;;;19.30;79.00;;;;;;5033195;28;21096;-82
2022/04/29 10:39:01;;;;;;;4.70;4.30;;;19.20;76.40;;;;;;5035779;28;20576;-79
2022/04/29 10:42:03;;;;;;;4.40;3.90;;;19.20;78.70;;;;;;5040451;28;20490;-81
2022/04/29 10:45:03;;;;;;;9.97;4.40;;;19.20;79.50;;;;;;5052230;28;20453;-80
2022/04/29 10:47:49;;;;;;;4.20;3.83;;;19.30;76.00;;;;;;5044211;28;20439;-79
2022/04/29 10:50:38;;;;;;;5.30;4.73;;;19.20;80.30;;;;;;5042531;28;20556;-81
2022/04/29 10:53:24;;;;;;;4.67;4.30;;;18.80;77.70;;;;;;5047372;28;20419;-81
2022/04/29 10:56:37;;;;;;;4.60;4.20;;;18.90;77.60;;;;;;5029071;28;20517;-81
2022/04/29 10:59:22;;;;;;;5.80;5.20;;;19.90;78.80;;;;;;5035107;28;20443;-82
2022/04/29 11:02:13;;;;;;;10.27;5.23;;;19.90;78.60;;;;;;5026102;28;20555;-80
2022/04/29 11:04:59;;;;;;;4.90;4.47;;;19.60;77.10;;;;;;5044514;28;20477;-81
2022/04/29 11:07:47;;;;;;;5.97;5.47;;;19.10;77.40;;;;;;5023433;28;20426;-79
2022/04/29 11:10:54;;;;;;;7.40;5.87;;;19.30;79.60;;;;;;5054174;28;20466;-78
2022/04/29 11:13:43;;;;;;;5.27;4.83;;;19.60;78.40;;;;;;5057177;28;20438;-79
2022/04/29 11:16:52;;;;;;;6.83;4.43;;;19.90;79.40;;;;;;5052589;28;20458;-78
2022/04/29 11:19:45;;;;;;;5.43;4.93;;;20.30;81.60;;;;;;5050050;28;20434;-79
2022/04/29 11:25:31;;;;;;;5.10;4.70;;;20.50;80.00;;;;;;5049425;28;20437;-81
2022/04/29 11:28:19;;;;;;;4.80;4.40;;;20.80;76.50;;;;;;5049704;28;20433;-80
2022/04/29 11:31:06;;;;;;;5.03;4.63;;;21.10;71.10;;;;;;5054247;28;20618;-81
2022/04/29 11:33:50;;;;;;;6.13;4.53;;;21.60;70.70;;;;;;5054907;28;20926;-80
2022/04/29 11:36:36;;;;;;;4.57;4.23;;;21.50;69.20;;;;;;5032970;28;20434;-80
2022/04/29 11:39:20;;;;;;;5.43;5.03;;;20.00;70.30;;;;;;5045631;28;20536;-81
2022/04/29 11:42:08;;;;;;;5.20;4.80;;;19.90;73.10;;;;;;5047963;28;20490;-81
2022/04/29 11:44:55;;;;;;;5.63;5.13;;;19.70;74.00;;;;;;5034069;28;20445;-81
2022/04/29 11:47:43;;;;;;;6.83;5.70;;;20.60;73.50;;;;;;4992319;28;20515;-80
2022/04/29 11:50:32;;;;;;;5.40;5.00;;;20.80;70.50;;;;;;4963496;28;20437;-77
2022/04/29 11:53:18;;;;;;;14.23;6.00;;;21.60;68.70;;;;;;4974388;28;20425;-78
2022/04/29 11:56:03;;;;;;;6.93;6.00;;;20.80;68.90;;;;;;4978055;28;20576;-81
2022/04/29 11:58:47;;;;;;;7.53;5.70;;;19.90;72.70;;;;;;4961874;28;20478;-83
2022/04/29 12:01:33;;;;;;;5.57;5.10;;;19.80;72.50;;;;;;4979953;28;20448;-80
2022/04/29 12:04:17;;;;;;;5.20;4.80;;;20.10;70.70;;;;;;4974079;28;20477;-82
2022/04/29 12:07:05;;;;;;;5.00;4.60;;;20.80;71.60;;;;;;4981470;28;20440;-82
2022/04/29 12:09:50;;;;;;;5.13;4.63;;;21.00;69.60;;;;;;4976621;28;20496;-80
2022/04/29 12:12:35;;;;;;;5.70;4.97;;;21.80;68.50;;;;;;4971507;28;20478;-81
2022/04/29 12:15:30;;;;;;;4.70;4.30;;;22.00;66.80;;;;;;4958361;28;20827;-82
2022/04/29 12:18:18;;;;;;;5.80;3.80;;;21.90;69.60;;;;;;4991082;28;20498;-81
2022/04/29 12:21:02;;;;;;;7.07;5.50;;;21.60;71.40;;;;;;4978492;28;20581;-81
2022/04/29 12:23:47;;;;;;;4.50;4.10;;;21.60;69.20;;;;;;5017297;28;20527;-81
2022/04/29 12:26:32;;;;;;;5.10;4.43;;;21.80;69.10;;;;;;5035157;28;20473;-80
2022/04/29 12:29:16;;;;;;;5.23;4.83;;;21.70;66.30;;;;;;5012909;28;20472;-81
2022/04/29 12:35:13;;;;;;;4.60;4.20;;;22.80;67.90;;;;;;5020885;28;20559;-81
2022/04/29 12:38:00;;;;;;;8.10;4.50;;;22.70;65.70;;;;;;5020153;28;20446;-77
2022/04/29 12:40:45;;;;;;;4.40;4.10;;;23.20;66.30;;;;;;5001576;28;20479;-77
2022/04/29 12:43:40;;;;;;;5.27;4.80;;;23.40;65.80;;;;;;4999598;28;20447;-79
2022/04/29 12:46:26;;;;;;;5.03;4.57;;;22.00;65.20;;;;;;4995237;28;20479;-80
2022/04/29 12:49:22;;;;;;;5.80;4.37;;;22.50;70.10;;;;;;4995999;28;20435;-80
2022/04/29 12:52:06;;;;;;;4.73;4.10;;;22.00;68.50;;;;;;5004670;28;20551;-80
2022/04/29 12:54:56;;;;;;;4.87;4.30;;;22.10;64.80;;;;;;5009119;28;20519;-78
2022/04/29 12:57:51;;;;;;;5.40;4.90;;;21.70;62.70;;;;;;4992856;28;20448;-80
2022/04/29 13:00:39;;;;;;;7.23;4.97;;;20.40;65.80;;;;;;5005328;28;20902;-79
2022/04/29 13:03:26;;;;;;;5.27;4.67;;;20.20;67.60;;;;;;4990142;28;20483;-80
2022/04/29 13:06:11;;;;;;;4.53;4.23;;;21.50;68.70;;;;;;5014634;28;20478;-78
2022/04/29 13:08:57;;;;;;;4.83;4.43;;;22.10;68.20;;;;;;5017152;28;20789;-78
2022/04/29 13:11:47;;;;;;;4.80;4.50;;;23.00;67.30;;;;;;4999339;28;20777;-78
2022/04/29 13:14:32;;;;;;;4.30;4.00;;;23.20;65.80;;;;;;4999782;28;20992;-79
2022/04/29 13:17:16;;;;;;;4.73;4.33;;;24.50;64.60;;;;;;5009634;28;20439;-80
2022/04/29 13:20:05;;;;;;;5.77;4.27;;;25.00;62.40;;;;;;5016741;28;20517;-79
2022/04/29 13:22:53;;;;;;;5.83;4.60;;;25.70;59.80;;;;;;5014589;28;20485;-79
2022/04/29 13:25:40;;;;;;;5.07;4.33;;;24.60;58.00;;;;;;5007307;28;20431;-80
2022/04/29 13:28:26;;;;;;;4.97;4.40;;;23.50;59.40;;;;;;5012240;28;20430;-77
2022/04/29 13:31:10;;;;;;;4.40;4.10;;;24.70;57.80;;;;;;5001538;28;20458;-79
2022/04/29 13:33:55;;;;;;;5.30;4.90;;;25.90;57.10;;;;;;5012514;28;20526;-79
2022/04/29 13:36:40;;;;;;;4.63;4.33;;;25.80;56.00;;;;;;5015827;28;21006;-77
2022/04/29 13:39:24;;;;;;;5.67;5.20;;;25.30;57.30;;;;;;5014599;28;20434;-79
2022/04/29 13:42:10;;;;;;;4.73;4.13;;;23.20;56.30;;;;;;5017387;28;20465;-79
2022/04/29 13:44:56;;;;;;;4.80;4.40;;;25.40;57.00;;;;;;4998772;28;20438;-81
2022/04/29 13:47:41;;;;;;;4.30;4.00;;;26.40;55.40;;;;;;5022069;28;20453;-80
2022/04/29 13:50:25;;;;;;;5.00;4.70;;;27.10;53.20;;;;;;5023602;28;20471;-80
2022/04/29 13:53:12;;;;;;;4.43;4.03;;;26.50;54.00;;;;;;5032480;28;20445;-81
2022/04/29 13:55:57;;;;;;;4.50;4.20;;;26.40;54.70;;;;;;5030262;28;20543;-79
2022/04/29 13:58:42;;;;;;;4.93;4.53;;;26.10;55.50;;;;;;5026062;28;20451;-81
2022/04/29 14:01:27;;;;;;;4.63;4.20;;;26.20;55.40;;;;;;5001966;28;20426;-80
2022/04/29 14:04:11;;;;;;;5.37;4.60;;;25.50;53.50;;;;;;5033395;28;20500;-80
2022/04/29 14:06:56;;;;;;;5.40;4.90;;;25.50;56.30;;;;;;5072934;28;20504;-81
2022/04/29 14:09:41;;;;;;;5.07;4.57;;;25.90;55.60;;;;;;5069603;28;20509;-80
2022/04/29 14:12:26;;;;;;;5.13;4.50;;;25.50;54.50;;;;;;5064386;28;20452;-80
2022/04/29 14:15:11;;;;;;;5.30;4.80;;;24.40;55.90;;;;;;5061546;28;20489;-81
2022/04/29 14:17:55;;;;;;;4.43;4.03;;;25.50;55.50;;;;;;5047806;28;20440;-81
2022/04/29 14:20:40;;;;;;;4.13;3.60;;;25.50;55.30;;;;;;5055205;28;20460;-80
2022/04/29 14:23:25;;;;;;;5.10;4.60;;;25.50;56.30;;;;;;5054596;28;20474;-81
2022/04/29 14:26:12;;;;;;;4.27;3.87;;;24.60;54.60;;;;;;5063177;28;20495;-79
2022/04/29 14:29:01;;;;;;;4.77;3.97;;;23.50;57.00;;;;;;5069563;28;20420;-80
2022/04/29 14:31:50;;;;;;;5.67;5.10;;;24.60;55.60;;;;;;5030667;28;20476;-79
2022/04/29 14:34:35;;;;;;;4.77;4.37;;;24.00;55.20;;;;;;5051143;28;20486;-80
2022/04/29 14:37:21;;;;;;;4.63;4.20;;;25.00;56.40;;;;;;5069523;28;20964;-80
2022/04/29 14:40:09;;;;;;;3.90;3.60;;;24.90;56.50;;;;;;5053670;28;20425;-81
2022/04/29 14:42:59;;;;;;;4.13;3.73;;;25.10;55.10;;;;;;5052752;28;20496;-79
2022/04/29 14:45:44;;;;;;;4.47;4.07;;;23.90;55.40;;;;;;5070033;28;20428;-81